createdAt,value
2022-12-31T00:01:49.553Z,98749.00
2022-12-31T00:05:53.673Z,98753.47
2022-12-31T00:09:57.362Z,98756.13
2022-12-31T00:14:00.695Z,98750.84
2022-12-31T00:18:05.172Z,98760.63
2022-12-31T00:22:08.125Z,98767.50
2022-12-31T00:26:12.638Z,98766.75
2022-12-31T00:30:16.150Z,98785.81
2022-12-31T00:34:20.877Z,98781.84
2022-12-31T00:38:25.084Z,98785.81
2022-12-31T00:42:28.662Z,98795.88
2022-12-31T00:46:33.148Z,98802.53
2022-12-31T00:50:37.581Z,98811.00
2022-12-31T00:54:40.696Z,98791.38
2022-12-31T00:58:44.739Z,98822.94
2022-12-31T01:02:48.523Z,98812.34
2022-12-31T01:06:53.572Z,98814.72
2022-12-31T01:11:23.293Z,98816.84
2022-12-31T01:15:26.825Z,98825.06
2022-12-31T01:19:30.553Z,98842.84
2022-12-31T01:23:35.822Z,98837.53
2022-12-31T01:27:42.825Z,98836.19
2022-12-31T01:31:46.164Z,98843.63
2022-12-31T01:35:49.389Z,98841.50
2022-12-31T01:39:55.092Z,98858.72
2022-12-31T01:44:03.083Z,98849.16
2022-12-31T01:48:06.691Z,98860.06
2022-12-31T01:52:17.983Z,98863.78
2022-12-31T01:56:23.198Z,98841.50
2022-12-31T02:00:27.279Z,98858.75
2022-12-31T02:04:32.869Z,98863.25
2022-12-31T02:08:41.922Z,98864.56
2022-12-31T02:12:47.241Z,98864.28
2022-12-31T02:16:56.139Z,98875.97
2022-12-31T02:21:19.925Z,98882.88
2022-12-31T02:25:38.053Z,98883.66
2022-12-31T02:29:59.209Z,98878.38
2022-12-31T02:34:06.656Z,98869.88
2022-12-31T02:38:13.257Z,98879.94
2022-12-31T02:42:21.326Z,98881.53
2022-12-31T02:46:31.327Z,98887.91
2022-12-31T02:50:42.693Z,98881.28
2022-12-31T02:54:52.569Z,98882.06
2022-12-31T02:59:15.619Z,98884.72
2022-12-31T03:03:20.265Z,98887.38
2022-12-31T03:07:26.471Z,98894.81
2022-12-31T03:11:49.076Z,98892.69
2022-12-31T03:15:52.249Z,98903.53
2022-12-31T03:20:12.783Z,98904.34
2022-12-31T03:24:34.638Z,98904.34
2022-12-31T03:28:38.521Z,98896.66
2022-12-31T03:32:41.473Z,98913.34
2022-12-31T03:36:47.567Z,98906.72
2022-12-31T03:40:54.008Z,98906.19
2022-12-31T03:45:03.441Z,98909.13
2022-12-31T03:49:10.603Z,98919.44
2022-12-31T03:53:13.826Z,98912.53
2022-12-31T03:57:34.781Z,98937.19
2022-12-31T04:01:41.028Z,98933.75
2022-12-31T04:05:44.350Z,98923.91
2022-12-31T04:09:48.113Z,98923.16
2022-12-31T04:14:01.112Z,98930.53
2022-12-31T04:18:05.670Z,98939.59
2022-12-31T04:22:17.612Z,98934.47
2022-12-31T04:26:20.976Z,98928.16
2022-12-31T04:30:26.114Z,98935.00
2022-12-31T04:34:30.037Z,98933.94
2022-12-31T04:38:36.099Z,98945.91
2022-12-31T04:42:44.677Z,98948.53
2022-12-31T04:46:49.329Z,98940.03
2022-12-31T04:50:53.383Z,98937.34
2022-12-31T04:54:56.657Z,98944.56
2022-12-31T04:59:00.336Z,98946.66
2022-12-31T05:03:09.071Z,98934.97
2022-12-31T05:07:12.556Z,98945.59
2022-12-31T05:11:15.884Z,98960.72
2022-12-31T05:15:19.074Z,98950.91
2022-12-31T05:19:26.380Z,98942.13
2022-12-31T05:23:30.156Z,98956.47
2022-12-31T05:27:34.003Z,98952.47
2022-12-31T05:31:36.987Z,98960.72
2022-12-31T05:35:41.297Z,98946.34
2022-12-31T05:39:45.209Z,98951.88
2022-12-31T05:43:48.651Z,98955.88
2022-12-31T05:47:55.760Z,98966.25
2022-12-31T05:52:01.310Z,98972.59
2022-12-31T05:56:04.777Z,98954.53
2022-12-31T06:00:09.068Z,98959.38
2022-12-31T06:04:12.336Z,98956.91
2022-12-31T06:08:17.140Z,98962.53
2022-12-31T06:12:20.201Z,98963.88
2022-12-31T06:16:26.803Z,98975.88
2022-12-31T06:20:33.845Z,98973.47
2022-12-31T06:24:37.987Z,98982.72
2022-12-31T06:28:42.131Z,98989.69
2022-12-31T06:32:45.338Z,98981.72
2022-12-31T06:36:48.597Z,98988.34
2022-12-31T06:40:53.035Z,98984.91
2022-12-31T06:44:55.806Z,98983.03
2022-12-31T06:48:58.647Z,98982.00
2022-12-31T06:53:01.514Z,98989.16
2022-12-31T06:57:06.588Z,98975.63
2022-12-31T07:01:28.949Z,98987.06
2022-12-31T07:05:41.259Z,99005.34
2022-12-31T07:09:48.878Z,99003.75
2022-12-31T07:14:01.286Z,99005.09
2022-12-31T07:18:08.687Z,99008.75
2022-12-31T07:22:14.970Z,99030.88
2022-12-31T07:26:24.790Z,99033.00
2022-12-31T07:30:36.757Z,99034.06
2022-12-31T07:34:43.508Z,99051.84
2022-12-31T07:38:53.005Z,99054.78
2022-12-31T07:43:06.045Z,99057.44
2022-12-31T07:47:21.326Z,99058.53
2022-12-31T07:51:24.875Z,99052.13
2022-12-31T07:55:27.535Z,99069.94
2022-12-31T07:59:42.225Z,99070.41
2022-12-31T08:03:54.401Z,99068.84
2022-12-31T08:08:00.733Z,99074.97
2022-12-31T08:12:04.478Z,99079.22
2022-12-31T08:16:11.914Z,99070.47
2022-12-31T08:20:18.762Z,99081.88
2022-12-31T08:24:30.041Z,99095.16
2022-12-31T08:28:47.082Z,99081.63
2022-12-31T08:32:56.221Z,99098.63
2022-12-31T08:37:03.233Z,99091.97
2022-12-31T08:41:12.875Z,99102.34
2022-12-31T08:45:16.942Z,99095.38
2022-12-31T08:49:20.122Z,99099.94
2022-12-31T08:53:25.097Z,99092.75
2022-12-31T08:57:33.814Z,99104.66
2022-12-31T09:01:51.171Z,99099.88
2022-12-31T09:06:00.159Z,99107.34
2022-12-31T09:10:16.329Z,99113.97
2022-12-31T09:14:27.129Z,99106.53
2022-12-31T09:18:33.276Z,99099.31
2022-12-31T09:22:36.915Z,99107.81
2022-12-31T09:26:44.068Z,99103.22
2022-12-31T09:30:52.680Z,99105.59
2022-12-31T09:34:57.887Z,99106.13
2022-12-31T09:39:05.557Z,99087.47
2022-12-31T09:43:30.667Z,99088.81
2022-12-31T09:48:01.027Z,99122.53
2022-12-31T09:52:12.694Z,99123.28
2022-12-31T09:56:19.102Z,99128.59
2022-12-31T10:00:26.830Z,99112.13
2022-12-31T10:04:44.778Z,99132.09
2022-12-31T10:09:17.076Z,99148.13
2022-12-31T10:13:34.016Z,99140.69
2022-12-31T10:17:53.844Z,99141.00
2022-12-31T10:22:06.364Z,99131.66
2022-12-31T10:26:28.489Z,99147.59
2022-12-31T10:30:35.068Z,99133.78
2022-12-31T10:34:59.421Z,99155.56
2022-12-31T10:39:13.532Z,99144.94
2022-12-31T10:43:24.000Z,99128.41
2022-12-31T10:47:54.660Z,99117.22
2022-12-31T10:52:26.110Z,99127.03
2022-12-31T10:56:50.223Z,99118.50
2022-12-31T11:00:59.832Z,99121.19
2022-12-31T11:05:13.408Z,99111.28
2022-12-31T11:09:48.824Z,99091.97
2022-12-31T11:14:25.986Z,99099.06
2022-12-31T11:18:32.564Z,99103.03
2022-12-31T11:22:48.377Z,99094.84
2022-12-31T11:26:54.306Z,99123.56
2022-12-31T11:31:10.614Z,99120.91
2022-12-31T11:35:27.104Z,99115.03
2022-12-31T11:39:48.657Z,99125.63
2022-12-31T11:43:59.294Z,99123.66
2022-12-31T11:52:56.259Z,99129.19
2022-12-31T11:57:03.618Z,99136.53
2022-12-31T12:01:11.013Z,99101.47
2022-12-31T12:05:17.226Z,99130.59
2022-12-31T12:09:26.604Z,99121.78
2022-12-31T12:13:30.677Z,99113.75
2022-12-31T12:17:34.628Z,99109.75
2022-12-31T12:21:46.318Z,99113.34
2022-12-31T12:25:49.271Z,99108.75
2022-12-31T12:29:52.009Z,99109.38
2022-12-31T12:33:54.824Z,99107.38
2022-12-31T12:38:04.217Z,99103.19
2022-12-31T12:42:11.153Z,99094.56
2022-12-31T12:46:20.809Z,99088.47
2022-12-31T12:50:25.743Z,99089.03
2022-12-31T12:54:39.736Z,99099.13
2022-12-31T12:58:52.343Z,99081.97
2022-12-31T13:03:07.162Z,99077.19
2022-12-31T13:07:20.382Z,99079.63
2022-12-31T13:11:32.461Z,99085.19
2022-12-31T13:15:41.011Z,99081.50
2022-12-31T13:19:47.996Z,99082.06
2022-12-31T13:23:53.566Z,99080.47
2022-12-31T13:28:03.562Z,99085.19
2022-12-31T13:32:09.113Z,99081.22
2022-12-31T13:36:16.472Z,99072.16
2022-12-31T13:40:23.370Z,99070.56
2022-12-31T13:44:31.724Z,99073.75
2022-12-31T13:48:37.880Z,99074.28
2022-12-31T13:52:44.234Z,99076.41
2022-12-31T13:56:48.409Z,99077.75
2022-12-31T14:00:57.463Z,99078.25
2022-12-31T14:05:04.664Z,99081.97
2022-12-31T14:09:08.167Z,99079.09
2022-12-31T14:13:34.940Z,99075.16
2022-12-31T14:17:46.941Z,99067.44
2022-12-31T14:21:55.886Z,99063.25
2022-12-31T14:26:00.996Z,99067.75
2022-12-31T14:30:06.666Z,99056.63
2022-12-31T14:34:15.457Z,99072.38
2022-12-31T14:38:25.206Z,99061.78
2022-12-31T14:42:29.911Z,99078.25
2022-12-31T14:46:37.520Z,99080.19
2022-12-31T14:50:41.889Z,99084.47
2022-12-31T14:54:44.676Z,99086.03
2022-12-31T14:58:56.149Z,99085.81
2022-12-31T15:03:00.495Z,99103.41
2022-12-31T15:07:10.807Z,99101.00
2022-12-31T15:11:24.133Z,99090.38
2022-12-31T15:15:53.199Z,99089.31
2022-12-31T15:20:31.903Z,99088.00
2022-12-31T15:24:36.076Z,99088.22
2022-12-31T15:28:39.933Z,99085.28
2022-12-31T15:32:44.360Z,99086.09
2022-12-31T15:36:53.426Z,99087.66
2022-12-31T15:40:57.656Z,99089.25
2022-12-31T15:45:03.553Z,99096.06
2022-12-31T15:49:15.581Z,99099.59
2022-12-31T15:53:28.030Z,99110.38
2022-12-31T15:57:35.586Z,99124.19
2022-12-31T16:01:41.516Z,99121.50
2022-12-31T16:05:44.656Z,99119.09
2022-12-31T16:09:51.904Z,99110.94
2022-12-31T16:13:56.914Z,99124.81
2022-12-31T16:18:01.789Z,99120.84
2022-12-31T16:22:13.268Z,99113.56
2022-12-31T16:26:16.645Z,99109.03
2022-12-31T16:30:24.443Z,99126.53
2022-12-31T16:34:29.355Z,99133.06
2022-12-31T16:38:33.771Z,99134.03
2022-12-31T16:42:44.123Z,99132.09
2022-12-31T16:46:49.334Z,99138.84
2022-12-31T16:50:54.821Z,99126.56
2022-12-31T16:54:57.921Z,99138.81
2022-12-31T16:59:02.772Z,99140.88
2022-12-31T17:03:10.158Z,99143.69
2022-12-31T17:07:31.959Z,99133.63
2022-12-31T17:11:39.234Z,99132.47
2022-12-31T17:15:44.157Z,99131.25
2022-12-31T17:19:50.729Z,99114.66
2022-12-31T17:23:56.067Z,99116.41
2022-12-31T17:28:01.949Z,99118.06
2022-12-31T17:32:06.760Z,99117.50
2022-12-31T17:36:24.362Z,99117.66
2022-12-31T17:40:50.513Z,99120.91
2022-12-31T17:44:57.377Z,99137.09
2022-12-31T17:49:03.437Z,99110.16
2022-12-31T17:53:11.696Z,99110.53
2022-12-31T17:57:24.251Z,99109.66
2022-12-31T18:01:27.646Z,99134.88
2022-12-31T18:05:30.760Z,99140.69
2022-12-31T18:09:35.309Z,99143.75
2022-12-31T18:13:38.564Z,99134.06
2022-12-31T18:17:41.650Z,99129.00
2022-12-31T18:21:45.254Z,99124.13
2022-12-31T18:25:49.620Z,99130.84
2022-12-31T18:29:52.508Z,99135.81
2022-12-31T18:33:57.174Z,99133.03
2022-12-31T18:38:00.489Z,99134.22
2022-12-31T18:42:04.891Z,99148.59
2022-12-31T18:46:09.911Z,99133.88
2022-12-31T18:50:15.384Z,99154.47
2022-12-31T18:54:18.397Z,99153.03
2022-12-31T18:58:23.264Z,99150.88
2022-12-31T19:02:26.016Z,99162.88
2022-12-31T19:06:29.694Z,99157.16
2022-12-31T19:10:32.920Z,99155.03
2022-12-31T19:14:37.813Z,99146.56
2022-12-31T19:18:41.100Z,99152.56
2022-12-31T19:22:44.309Z,99169.31
2022-12-31T19:26:48.635Z,99161.88
2022-12-31T19:30:53.582Z,99145.91
2022-12-31T19:34:56.420Z,99165.03
2022-12-31T19:38:59.685Z,99167.03
2022-12-31T19:43:02.488Z,99153.00
2022-12-31T19:47:07.423Z,99159.16
2022-12-31T19:51:12.487Z,99165.94
2022-12-31T19:55:17.411Z,99177.31
2022-12-31T19:59:20.111Z,99176.25
2022-12-31T20:03:24.438Z,99164.69
2022-12-31T20:07:27.484Z,99175.00
2022-12-31T20:11:30.662Z,99165.25
2022-12-31T20:15:34.339Z,99167.59
2022-12-31T20:19:38.714Z,99174.84
2022-12-31T20:23:42.056Z,99172.16
2022-12-31T20:27:44.900Z,99181.66
2022-12-31T20:31:47.647Z,99175.28
2022-12-31T20:35:52.484Z,99173.88
2022-12-31T20:39:55.734Z,99170.03
2022-12-31T20:43:58.561Z,99182.00
2022-12-31T20:48:01.735Z,99172.44
2022-12-31T20:52:06.430Z,99194.31
2022-12-31T20:56:10.472Z,99186.63
2022-12-31T21:00:14.845Z,99184.06
2022-12-31T21:04:18.220Z,99204.38
2022-12-31T21:08:22.631Z,99206.63
2022-12-31T21:12:43.046Z,99205.81
2022-12-31T21:16:45.995Z,99219.03
2022-12-31T21:20:49.143Z,99215.59
2022-12-31T21:24:53.914Z,99199.91
2022-12-31T21:28:57.185Z,99233.78
2022-12-31T21:32:59.923Z,99219.38
2022-12-31T21:37:02.675Z,99234.47
2022-12-31T21:41:08.365Z,99232.75
2022-12-31T21:45:12.273Z,99222.88
2022-12-31T21:49:15.339Z,99237.00
2022-12-31T21:53:23.742Z,99248.91
2022-12-31T21:57:29.395Z,99241.38
2022-12-31T22:01:50.026Z,99246.03
2022-12-31T22:05:56.861Z,99232.75
2022-12-31T22:09:59.798Z,99247.66
2022-12-31T22:14:04.389Z,99244.34
2022-12-31T22:18:07.146Z,99245.13
2022-12-31T22:22:10.282Z,99248.81
2022-12-31T22:26:15.706Z,99254.59
2022-12-31T22:30:20.548Z,99255.94
2022-12-31T22:34:23.336Z,99238.38
2022-12-31T22:38:26.905Z,99258.63
2022-12-31T22:42:29.861Z,99253.53
2022-12-31T22:46:35.194Z,99256.56
2022-12-31T22:50:38.567Z,99274.34
2022-12-31T22:54:41.699Z,99275.94
2022-12-31T22:58:44.789Z,99279.25
2022-12-31T23:02:50.322Z,99282.66
2022-12-31T23:06:53.260Z,99282.72
2022-12-31T23:11:05.636Z,99281.91
2022-12-31T23:15:28.804Z,99260.22
2022-12-31T23:19:50.633Z,99281.22
2022-12-31T23:23:54.566Z,99277.38
2022-12-31T23:27:57.443Z,99282.88
2022-12-31T23:32:01.456Z,99269.28
2022-12-31T23:36:07.214Z,99286.94
2022-12-31T23:40:15.750Z,99278.66
2022-12-31T23:44:22.043Z,99302.13
2022-12-31T23:48:24.759Z,99298.63
2022-12-31T23:52:29.212Z,99300.25
2022-12-31T23:56:32.347Z,99308.41
